sensor_id;sensor_type;location;lat;lon;timestamp;P1;durP1;ratioP1;P2;durP2;ratioP2
69910;SDS011;63555;49.920;17.868;2023-05-19T00:04:55;15.02;;;5.22;;
69910;SDS011;63555;49.920;17.868;2023-05-19T00:09:55;18.03;;;5.90;;
69910;SDS011;63555;49.920;17.868;2023-05-19T00:14:56;9.73;;;4.33;;
69910;SDS011;63555;49.920;17.868;2023-05-19T00:19:56;15.67;;;5.43;;
69910;SDS011;63555;49.920;17.868;2023-05-19T00:24:57;10.33;;;5.40;;
69910;SDS011;63555;49.920;17.868;2023-05-19T00:29:57;11.27;;;5.40;;
69910;SDS011;63555;49.920;17.868;2023-05-19T00:34:58;11.83;;;5.30;;
69910;SDS011;63555;49.920;17.868;2023-05-19T00:39:58;10.20;;;4.87;;
69910;SDS011;63555;49.920;17.868;2023-05-19T00:44:59;8.70;;;4.03;;
69910;SDS011;63555;49.920;17.868;2023-05-19T00:49:59;11.87;;;5.07;;
69910;SDS011;63555;49.920;17.868;2023-05-19T00:54:59;11.87;;;5.27;;
69910;SDS011;63555;49.920;17.868;2023-05-19T01:00:00;12.73;;;5.33;;
69910;SDS011;63555;49.920;17.868;2023-05-19T01:05:00;11.57;;;5.20;;
69910;SDS011;63555;49.920;17.868;2023-05-19T01:10:01;11.07;;;5.60;;
69910;SDS011;63555;49.920;17.868;2023-05-19T01:15:02;15.38;;;6.05;;
69910;SDS011;63555;49.920;17.868;2023-05-19T01:25:31;16.80;;;6.50;;
69910;SDS011;63555;49.920;17.868;2023-05-19T01:30:43;14.27;;;6.87;;
69910;SDS011;63555;49.920;17.868;2023-05-19T01:35:47;13.70;;;6.25;;
69910;SDS011;63555;49.920;17.868;2023-05-19T01:40:49;16.50;;;7.32;;
69910;SDS011;63555;49.920;17.868;2023-05-19T01:45:51;17.08;;;6.40;;
69910;SDS011;63555;49.920;17.868;2023-05-19T01:50:52;13.63;;;6.45;;
69910;SDS011;63555;49.920;17.868;2023-05-19T01:55:53;15.10;;;6.17;;
69910;SDS011;63555;49.920;17.868;2023-05-19T02:06:02;17.10;;;6.40;;
69910;SDS011;63555;49.920;17.868;2023-05-19T02:11:06;13.90;;;6.55;;
69910;SDS011;63555;49.920;17.868;2023-05-19T02:16:18;19.35;;;6.60;;
69910;SDS011;63555;49.920;17.868;2023-05-19T02:21:26;17.23;;;7.22;;
69910;SDS011;63555;49.920;17.868;2023-05-19T02:26:26;17.63;;;5.97;;
69910;SDS011;63555;49.920;17.868;2023-05-19T02:31:27;14.20;;;6.67;;
69910;SDS011;63555;49.920;17.868;2023-05-19T02:36:27;11.10;;;5.37;;
69910;SDS011;63555;49.920;17.868;2023-05-19T02:41:27;12.57;;;6.20;;
69910;SDS011;63555;49.920;17.868;2023-05-19T02:46:28;13.23;;;6.13;;
69910;SDS011;63555;49.920;17.868;2023-05-19T02:51:28;14.97;;;7.03;;
69910;SDS011;63555;49.920;17.868;2023-05-19T02:56:29;12.87;;;6.40;;
69910;SDS011;63555;49.920;17.868;2023-05-19T03:01:29;16.93;;;7.20;;
69910;SDS011;63555;49.920;17.868;2023-05-19T03:06:31;18.08;;;7.20;;
69910;SDS011;63555;49.920;17.868;2023-05-19T03:11:31;14.13;;;6.80;;
69910;SDS011;63555;49.920;17.868;2023-05-19T03:16:32;13.67;;;7.00;;
69910;SDS011;63555;49.920;17.868;2023-05-19T03:21:33;14.63;;;7.07;;
69910;SDS011;63555;49.920;17.868;2023-05-19T03:26:33;13.77;;;6.07;;
69910;SDS011;63555;49.920;17.868;2023-05-19T03:31:33;14.23;;;6.67;;
69910;SDS011;63555;49.920;17.868;2023-05-19T03:36:34;16.30;;;6.67;;
69910;SDS011;63555;49.920;17.868;2023-05-19T03:41:38;14.23;;;7.05;;
69910;SDS011;63555;49.920;17.868;2023-05-19T03:46:38;19.13;;;7.13;;
69910;SDS011;63555;49.920;17.868;2023-05-19T03:51:38;14.73;;;6.53;;
69910;SDS011;63555;49.920;17.868;2023-05-19T03:56:40;16.07;;;6.97;;
69910;SDS011;63555;49.920;17.868;2023-05-19T04:01:42;21.05;;;6.63;;
69910;SDS011;63555;49.920;17.868;2023-05-19T04:06:42;21.03;;;7.70;;
69910;SDS011;63555;49.920;17.868;2023-05-19T04:11:42;17.47;;;8.03;;
69910;SDS011;63555;49.920;17.868;2023-05-19T04:16:43;17.13;;;8.37;;
69910;SDS011;63555;49.920;17.868;2023-05-19T04:21:43;19.30;;;7.43;;
69910;SDS011;63555;49.920;17.868;2023-05-19T04:26:43;20.63;;;7.70;;
69910;SDS011;63555;49.920;17.868;2023-05-19T04:31:46;15.73;;;7.23;;
69910;SDS011;63555;49.920;17.868;2023-05-19T04:36:46;18.10;;;7.70;;
69910;SDS011;63555;49.920;17.868;2023-05-19T04:41:47;16.02;;;7.85;;
69910;SDS011;63555;49.920;17.868;2023-05-19T04:46:47;19.73;;;7.80;;
69910;SDS011;63555;49.920;17.868;2023-05-19T04:51:48;15.90;;;7.57;;
69910;SDS011;63555;49.920;17.868;2023-05-19T04:56:50;17.58;;;7.47;;
69910;SDS011;63555;49.920;17.868;2023-05-19T05:01:50;17.13;;;7.07;;
69910;SDS011;63555;49.920;17.868;2023-05-19T05:06:51;15.97;;;8.27;;
69910;SDS011;63555;49.920;17.868;2023-05-19T05:11:51;23.23;;;10.90;;
69910;SDS011;63555;49.920;17.868;2023-05-19T05:16:52;25.07;;;10.47;;
69910;SDS011;63555;49.920;17.868;2023-05-19T05:21:53;21.00;;;9.93;;
69910;SDS011;63555;49.920;17.868;2023-05-19T05:26:53;23.48;;;10.93;;
69910;SDS011;63555;49.920;17.868;2023-05-19T05:31:53;20.97;;;10.53;;
69910;SDS011;63555;49.920;17.868;2023-05-19T05:36:54;21.47;;;10.30;;
69910;SDS011;63555;49.920;17.868;2023-05-19T05:41:54;18.67;;;9.85;;
69910;SDS011;63555;49.920;17.868;2023-05-19T05:46:55;17.40;;;9.83;;
69910;SDS011;63555;49.920;17.868;2023-05-19T05:51:56;24.40;;;11.57;;
69910;SDS011;63555;49.920;17.868;2023-05-19T05:56:56;26.00;;;11.27;;
69910;SDS011;63555;49.920;17.868;2023-05-19T06:01:57;21.13;;;10.47;;
69910;SDS011;63555;49.920;17.868;2023-05-19T06:06:57;23.07;;;10.43;;
69910;SDS011;63555;49.920;17.868;2023-05-19T06:12:00;25.13;;;11.23;;
69910;SDS011;63555;49.920;17.868;2023-05-19T06:17:01;20.10;;;10.80;;
69910;SDS011;63555;49.920;17.868;2023-05-19T06:22:01;24.13;;;11.37;;
69910;SDS011;63555;49.920;17.868;2023-05-19T06:27:01;23.30;;;10.83;;
69910;SDS011;63555;49.920;17.868;2023-05-19T06:32:02;25.80;;;11.10;;
69910;SDS011;63555;49.920;17.868;2023-05-19T06:37:03;18.67;;;10.47;;
69910;SDS011;63555;49.920;17.868;2023-05-19T06:42:03;26.83;;;11.33;;
69910;SDS011;63555;49.920;17.868;2023-05-19T06:47:04;28.13;;;11.83;;
69910;SDS011;63555;49.920;17.868;2023-05-19T06:52:04;26.27;;;10.70;;
69910;SDS011;63555;49.920;17.868;2023-05-19T06:57:04;25.53;;;11.40;;
69910;SDS011;63555;49.920;17.868;2023-05-19T07:02:06;26.57;;;11.13;;
69910;SDS011;63555;49.920;17.868;2023-05-19T07:07:06;19.48;;;8.98;;
69910;SDS011;63555;49.920;17.868;2023-05-19T07:12:07;18.90;;;9.50;;
69910;SDS011;63555;49.920;17.868;2023-05-19T07:17:07;19.37;;;9.27;;
69910;SDS011;63555;49.920;17.868;2023-05-19T07:22:08;15.80;;;8.13;;
69910;SDS011;63555;49.920;17.868;2023-05-19T07:27:08;13.60;;;6.97;;
69910;SDS011;63555;49.920;17.868;2023-05-19T07:32:09;17.77;;;8.27;;
69910;SDS011;63555;49.920;17.868;2023-05-19T07:37:09;16.20;;;7.40;;
69910;SDS011;63555;49.920;17.868;2023-05-19T07:42:10;12.60;;;7.20;;
69910;SDS011;63555;49.920;17.868;2023-05-19T07:47:10;12.50;;;7.10;;
69910;SDS011;63555;49.920;17.868;2023-05-19T07:52:10;13.13;;;7.03;;
69910;SDS011;63555;49.920;17.868;2023-05-19T07:57:11;13.57;;;7.07;;
69910;SDS011;63555;49.920;17.868;2023-05-19T08:02:11;13.53;;;6.33;;
69910;SDS011;63555;49.920;17.868;2023-05-19T08:07:11;14.00;;;7.23;;
69910;SDS011;63555;49.920;17.868;2023-05-19T08:12:12;13.83;;;7.77;;
69910;SDS011;63555;49.920;17.868;2023-05-19T08:17:12;20.50;;;7.40;;
69910;SDS011;63555;49.920;17.868;2023-05-19T08:22:12;42.50;;;10.43;;
69910;SDS011;63555;49.920;17.868;2023-05-19T08:27:13;12.80;;;6.53;;
69910;SDS011;63555;49.920;17.868;2023-05-19T08:32:13;12.57;;;7.07;;
69910;SDS011;63555;49.920;17.868;2023-05-19T08:37:13;12.63;;;6.70;;
69910;SDS011;63555;49.920;17.868;2023-05-19T08:42:14;14.07;;;7.23;;
69910;SDS011;63555;49.920;17.868;2023-05-19T08:47:14;10.88;;;6.05;;
69910;SDS011;63555;49.920;17.868;2023-05-19T08:57:44;11.40;;;6.72;;
69910;SDS011;63555;49.920;17.868;2023-05-19T09:02:46;10.23;;;6.10;;
69910;SDS011;63555;49.920;17.868;2023-05-19T09:07:49;11.20;;;6.22;;
69910;SDS011;63555;49.920;17.868;2023-05-19T09:12:50;13.97;;;6.83;;
69910;SDS011;63555;49.920;17.868;2023-05-19T09:17:51;14.63;;;7.43;;
69910;SDS011;63555;49.920;17.868;2023-05-19T09:23:06;13.77;;;7.22;;
69910;SDS011;63555;49.920;17.868;2023-05-19T09:28:07;13.63;;;6.82;;
69910;SDS011;63555;49.920;17.868;2023-05-19T09:33:07;14.70;;;8.13;;
69910;SDS011;63555;49.920;17.868;2023-05-19T09:38:08;14.37;;;7.70;;
69910;SDS011;63555;49.920;17.868;2023-05-19T09:43:17;18.13;;;8.15;;
69910;SDS011;63555;49.920;17.868;2023-05-19T09:48:17;13.17;;;7.93;;
69910;SDS011;63555;49.920;17.868;2023-05-19T09:53:18;14.47;;;7.83;;
69910;SDS011;63555;49.920;17.868;2023-05-19T09:58:19;14.15;;;7.60;;
69910;SDS011;63555;49.920;17.868;2023-05-19T10:03:21;14.75;;;8.07;;
69910;SDS011;63555;49.920;17.868;2023-05-19T10:08:22;15.07;;;8.90;;
69910;SDS011;63555;49.920;17.868;2023-05-19T10:13:25;18.75;;;9.57;;
69910;SDS011;63555;49.920;17.868;2023-05-19T10:18:27;15.65;;;8.60;;
69910;SDS011;63555;49.920;17.868;2023-05-19T10:23:28;16.47;;;9.77;;
69910;SDS011;63555;49.920;17.868;2023-05-19T10:28:30;16.07;;;8.97;;
69910;SDS011;63555;49.920;17.868;2023-05-19T10:39:10;16.42;;;9.65;;
69910;SDS011;63555;49.920;17.868;2023-05-19T10:44:27;17.15;;;10.38;;
69910;SDS011;63555;49.920;17.868;2023-05-19T10:49:29;15.27;;;9.13;;
69910;SDS011;63555;49.920;17.868;2023-05-19T10:54:38;17.30;;;9.67;;
69910;SDS011;63555;49.920;17.868;2023-05-19T10:59:45;17.73;;;9.95;;
69910;SDS011;63555;49.920;17.868;2023-05-19T11:04:46;16.70;;;9.50;;
69910;SDS011;63555;49.920;17.868;2023-05-19T11:09:52;16.98;;;9.68;;
69910;SDS011;63555;49.920;17.868;2023-05-19T11:14:53;17.73;;;9.73;;
69910;SDS011;63555;49.920;17.868;2023-05-19T11:19:55;19.27;;;10.23;;
69910;SDS011;63555;49.920;17.868;2023-05-19T11:24:56;21.60;;;10.55;;
69910;SDS011;63555;49.920;17.868;2023-05-19T11:29:58;20.63;;;11.00;;
69910;SDS011;63555;49.920;17.868;2023-05-19T11:34:59;16.90;;;9.80;;
69910;SDS011;63555;49.920;17.868;2023-05-19T11:40:00;18.63;;;9.57;;
69910;SDS011;63555;49.920;17.868;2023-05-19T11:45:02;16.45;;;9.85;;
69910;SDS011;63555;49.920;17.868;2023-05-19T11:50:03;20.33;;;10.73;;
69910;SDS011;63555;49.920;17.868;2023-05-19T11:55:04;19.25;;;10.73;;
69910;SDS011;63555;49.920;17.868;2023-05-19T12:00:05;18.00;;;10.27;;
69910;SDS011;63555;49.920;17.868;2023-05-19T12:05:16;19.10;;;10.02;;
69910;SDS011;63555;49.920;17.868;2023-05-19T12:10:21;17.53;;;10.40;;
69910;SDS011;63555;49.920;17.868;2023-05-19T12:15:23;15.57;;;8.70;;
69910;SDS011;63555;49.920;17.868;2023-05-19T12:20:24;17.20;;;10.20;;
69910;SDS011;63555;49.920;17.868;2023-05-19T12:25:26;16.85;;;9.93;;
69910;SDS011;63555;49.920;17.868;2023-05-19T12:30:28;15.82;;;9.60;;
69910;SDS011;63555;49.920;17.868;2023-05-19T12:35:30;18.27;;;9.83;;
69910;SDS011;63555;49.920;17.868;2023-05-19T12:40:35;15.27;;;8.82;;
69910;SDS011;63555;49.920;17.868;2023-05-19T12:45:38;14.68;;;9.05;;
69910;SDS011;63555;49.920;17.868;2023-05-19T12:50:39;16.25;;;9.18;;
69910;SDS011;63555;49.920;17.868;2023-05-19T12:55:40;12.83;;;7.70;;
69910;SDS011;63555;49.920;17.868;2023-05-19T13:00:42;16.58;;;9.30;;
69910;SDS011;63555;49.920;17.868;2023-05-19T13:05:46;15.23;;;9.20;;
69910;SDS011;63555;49.920;17.868;2023-05-19T13:10:48;18.52;;;10.13;;
69910;SDS011;63555;49.920;17.868;2023-05-19T13:15:48;18.10;;;9.70;;
69910;SDS011;63555;49.920;17.868;2023-05-19T13:20:49;17.10;;;9.40;;
69910;SDS011;63555;49.920;17.868;2023-05-19T13:25:51;17.42;;;9.85;;
69910;SDS011;63555;49.920;17.868;2023-05-19T13:30:52;16.37;;;9.87;;
69910;SDS011;63555;49.920;17.868;2023-05-19T13:35:52;16.50;;;9.53;;
69910;SDS011;63555;49.920;17.868;2023-05-19T13:40:52;22.83;;;10.10;;
69910;SDS011;63555;49.920;17.868;2023-05-19T13:45:53;16.77;;;10.50;;
69910;SDS011;63555;49.920;17.868;2023-05-19T13:50:53;15.40;;;9.60;;
69910;SDS011;63555;49.920;17.868;2023-05-19T13:55:54;15.75;;;9.38;;
69910;SDS011;63555;49.920;17.868;2023-05-19T14:00:55;19.50;;;9.73;;
69910;SDS011;63555;49.920;17.868;2023-05-19T14:05:58;17.35;;;9.48;;
69910;SDS011;63555;49.920;17.868;2023-05-19T14:10:58;18.40;;;9.73;;
69910;SDS011;63555;49.920;17.868;2023-05-19T14:15:59;21.10;;;11.57;;
69910;SDS011;63555;49.920;17.868;2023-05-19T14:21:00;18.13;;;11.07;;
69910;SDS011;63555;49.920;17.868;2023-05-19T14:26:00;18.63;;;10.45;;
69910;SDS011;63555;49.920;17.868;2023-05-19T14:31:01;19.63;;;11.18;;
69910;SDS011;63555;49.920;17.868;2023-05-19T14:36:01;20.70;;;10.20;;
69910;SDS011;63555;49.920;17.868;2023-05-19T14:41:02;19.30;;;9.50;;
69910;SDS011;63555;49.920;17.868;2023-05-19T14:46:02;20.93;;;10.10;;
69910;SDS011;63555;49.920;17.868;2023-05-19T14:51:03;24.83;;;10.30;;
69910;SDS011;63555;49.920;17.868;2023-05-19T14:56:03;22.50;;;10.27;;
69910;SDS011;63555;49.920;17.868;2023-05-19T15:01:04;21.42;;;10.82;;
69910;SDS011;63555;49.920;17.868;2023-05-19T15:06:08;23.47;;;11.50;;
69910;SDS011;63555;49.920;17.868;2023-05-19T15:11:09;21.83;;;11.67;;
69910;SDS011;63555;49.920;17.868;2023-05-19T15:16:09;19.07;;;10.53;;
69910;SDS011;63555;49.920;17.868;2023-05-19T15:21:10;20.37;;;10.30;;
69910;SDS011;63555;49.920;17.868;2023-05-19T15:26:10;19.55;;;9.95;;
69910;SDS011;63555;49.920;17.868;2023-05-19T15:31:11;20.73;;;12.00;;
69910;SDS011;63555;49.920;17.868;2023-05-19T15:36:11;16.87;;;10.50;;
69910;SDS011;63555;49.920;17.868;2023-05-19T15:41:15;23.20;;;13.53;;
69910;SDS011;63555;49.920;17.868;2023-05-19T15:46:22;28.10;;;13.83;;
69910;SDS011;63555;49.920;17.868;2023-05-19T15:51:22;26.97;;;14.27;;
69910;SDS011;63555;49.920;17.868;2023-05-19T15:56:23;23.63;;;13.17;;
69910;SDS011;63555;49.920;17.868;2023-05-19T16:01:23;27.13;;;13.87;;
69910;SDS011;63555;49.920;17.868;2023-05-19T16:06:25;23.38;;;12.48;;
69910;SDS011;63555;49.920;17.868;2023-05-19T16:11:26;25.13;;;12.70;;
69910;SDS011;63555;49.920;17.868;2023-05-19T16:16:27;22.02;;;12.20;;
69910;SDS011;63555;49.920;17.868;2023-05-19T16:21:27;22.93;;;12.03;;
69910;SDS011;63555;49.920;17.868;2023-05-19T16:26:27;25.10;;;13.07;;
69910;SDS011;63555;49.920;17.868;2023-05-19T16:31:27;27.03;;;15.13;;
69910;SDS011;63555;49.920;17.868;2023-05-19T16:36:28;28.63;;;14.90;;
69910;SDS011;63555;49.920;17.868;2023-05-19T16:41:28;25.93;;;14.57;;
69910;SDS011;63555;49.920;17.868;2023-05-19T16:46:28;27.47;;;15.27;;
69910;SDS011;63555;49.920;17.868;2023-05-19T16:51:29;30.95;;;15.07;;
69910;SDS011;63555;49.920;17.868;2023-05-19T16:56:29;32.93;;;15.63;;
69910;SDS011;63555;49.920;17.868;2023-05-19T17:01:30;32.13;;;17.20;;
69910;SDS011;63555;49.920;17.868;2023-05-19T17:06:30;36.63;;;18.03;;
69910;SDS011;63555;49.920;17.868;2023-05-19T17:11:30;38.60;;;19.67;;
69910;SDS011;63555;49.920;17.868;2023-05-19T17:16:32;35.43;;;18.67;;
69910;SDS011;63555;49.920;17.868;2023-05-19T17:21:35;43.40;;;19.95;;
69910;SDS011;63555;49.920;17.868;2023-05-19T17:26:35;38.27;;;19.47;;
69910;SDS011;63555;49.920;17.868;2023-05-19T17:31:36;48.73;;;20.77;;
69910;SDS011;63555;49.920;17.868;2023-05-19T17:36:36;42.23;;;20.40;;
69910;SDS011;63555;49.920;17.868;2023-05-19T17:41:37;35.83;;;17.90;;
69910;SDS011;63555;49.920;17.868;2023-05-19T17:46:37;45.13;;;20.83;;
69910;SDS011;63555;49.920;17.868;2023-05-19T17:51:38;36.35;;;18.70;;
69910;SDS011;63555;49.920;17.868;2023-05-19T17:56:40;40.33;;;19.20;;
69910;SDS011;63555;49.920;17.868;2023-05-19T18:01:42;41.63;;;19.70;;
69910;SDS011;63555;49.920;17.868;2023-05-19T18:06:43;41.22;;;19.38;;
69910;SDS011;63555;49.920;17.868;2023-05-19T18:11:45;41.33;;;19.30;;
69910;SDS011;63555;49.920;17.868;2023-05-19T18:16:45;38.42;;;19.00;;
69910;SDS011;63555;49.920;17.868;2023-05-19T18:21:47;38.95;;;18.90;;
69910;SDS011;63555;49.920;17.868;2023-05-19T18:26:47;34.93;;;17.30;;
69910;SDS011;63555;49.920;17.868;2023-05-19T18:31:48;39.93;;;18.20;;
69910;SDS011;63555;49.920;17.868;2023-05-19T18:36:48;36.40;;;17.23;;
69910;SDS011;63555;49.920;17.868;2023-05-19T18:41:48;38.20;;;18.57;;
69910;SDS011;63555;49.920;17.868;2023-05-19T18:46:49;39.83;;;18.65;;
69910;SDS011;63555;49.920;17.868;2023-05-19T18:51:50;41.33;;;18.90;;
69910;SDS011;63555;49.920;17.868;2023-05-19T18:56:50;33.50;;;17.35;;
69910;SDS011;63555;49.920;17.868;2023-05-19T19:01:51;39.13;;;19.60;;
69910;SDS011;63555;49.920;17.868;2023-05-19T19:06:52;41.90;;;18.55;;
69910;SDS011;63555;49.920;17.868;2023-05-19T19:11:53;42.37;;;19.73;;
69910;SDS011;63555;49.920;17.868;2023-05-19T19:16:53;40.77;;;19.43;;
69910;SDS011;63555;49.920;17.868;2023-05-19T19:21:53;36.13;;;18.40;;
69910;SDS011;63555;49.920;17.868;2023-05-19T19:26:53;40.63;;;18.80;;
69910;SDS011;63555;49.920;17.868;2023-05-19T19:31:54;38.97;;;19.23;;
69910;SDS011;63555;49.920;17.868;2023-05-19T19:36:54;36.60;;;18.47;;
69910;SDS011;63555;49.920;17.868;2023-05-19T19:41:55;33.43;;;18.30;;
69910;SDS011;63555;49.920;17.868;2023-05-19T19:46:55;43.07;;;20.23;;
69910;SDS011;63555;49.920;17.868;2023-05-19T19:51:55;45.53;;;20.83;;
69910;SDS011;63555;49.920;17.868;2023-05-19T19:56:56;37.57;;;18.47;;
69910;SDS011;63555;49.920;17.868;2023-05-19T20:01:56;38.60;;;20.37;;
69910;SDS011;63555;49.920;17.868;2023-05-19T20:06:56;43.20;;;20.43;;
69910;SDS011;63555;49.920;17.868;2023-05-19T20:11:56;37.33;;;19.30;;
69910;SDS011;63555;49.920;17.868;2023-05-19T20:16:57;41.23;;;20.63;;
69910;SDS011;63555;49.920;17.868;2023-05-19T20:21:57;43.17;;;22.73;;
69910;SDS011;63555;49.920;17.868;2023-05-19T20:26:58;42.37;;;22.70;;
69910;SDS011;63555;49.920;17.868;2023-05-19T20:31:58;45.50;;;22.10;;
69910;SDS011;63555;49.920;17.868;2023-05-19T20:36:58;51.13;;;22.20;;
69910;SDS011;63555;49.920;17.868;2023-05-19T20:41:59;48.85;;;23.38;;
69910;SDS011;63555;49.920;17.868;2023-05-19T20:46:59;51.40;;;23.23;;
69910;SDS011;63555;49.920;17.868;2023-05-19T20:51:59;41.88;;;20.38;;
69910;SDS011;63555;49.920;17.868;2023-05-19T20:57:00;41.23;;;21.27;;
69910;SDS011;63555;49.920;17.868;2023-05-19T21:02:05;41.67;;;20.37;;
69910;SDS011;63555;49.920;17.868;2023-05-19T21:07:06;42.75;;;21.45;;
69910;SDS011;63555;49.920;17.868;2023-05-19T21:12:07;36.37;;;18.70;;
69910;SDS011;63555;49.920;17.868;2023-05-19T21:17:07;30.70;;;16.40;;
69910;SDS011;63555;49.920;17.868;2023-05-19T21:22:07;33.53;;;16.67;;
69910;SDS011;63555;49.920;17.868;2023-05-19T21:27:08;36.00;;;17.67;;
69910;SDS011;63555;49.920;17.868;2023-05-19T21:32:08;40.00;;;17.13;;
69910;SDS011;63555;49.920;17.868;2023-05-19T21:37:08;39.93;;;17.40;;
69910;SDS011;63555;49.920;17.868;2023-05-19T21:42:09;37.10;;;16.40;;
69910;SDS011;63555;49.920;17.868;2023-05-19T21:47:09;37.00;;;15.73;;
69910;SDS011;63555;49.920;17.868;2023-05-19T21:52:10;36.97;;;16.23;;
69910;SDS011;63555;49.920;17.868;2023-05-19T21:57:10;30.97;;;15.10;;
69910;SDS011;63555;49.920;17.868;2023-05-19T22:02:11;35.05;;;15.85;;
69910;SDS011;63555;49.920;17.868;2023-05-19T22:07:11;36.63;;;15.53;;
69910;SDS011;63555;49.920;17.868;2023-05-19T22:12:12;33.77;;;15.97;;
69910;SDS011;63555;49.920;17.868;2023-05-19T22:17:12;34.87;;;16.20;;
69910;SDS011;63555;49.920;17.868;2023-05-19T22:22:12;40.33;;;16.73;;
69910;SDS011;63555;49.920;17.868;2023-05-19T22:27:13;35.00;;;16.25;;
69910;SDS011;63555;49.920;17.868;2023-05-19T22:32:13;39.70;;;17.38;;
69910;SDS011;63555;49.920;17.868;2023-05-19T22:37:16;32.47;;;14.88;;
69910;SDS011;63555;49.920;17.868;2023-05-19T22:42:17;35.23;;;15.97;;
69910;SDS011;63555;49.920;17.868;2023-05-19T22:47:17;33.90;;;15.63;;
69910;SDS011;63555;49.920;17.868;2023-05-19T22:52:17;38.00;;;16.00;;
69910;SDS011;63555;49.920;17.868;2023-05-19T22:57:18;38.70;;;17.60;;
69910;SDS011;63555;49.920;17.868;2023-05-19T23:02:18;40.30;;;18.83;;
69910;SDS011;63555;49.920;17.868;2023-05-19T23:07:18;40.63;;;17.47;;
69910;SDS011;63555;49.920;17.868;2023-05-19T23:12:19;44.30;;;19.23;;
69910;SDS011;63555;49.920;17.868;2023-05-19T23:17:19;45.13;;;18.80;;
69910;SDS011;63555;49.920;17.868;2023-05-19T23:22:20;40.50;;;18.40;;
69910;SDS011;63555;49.920;17.868;2023-05-19T23:27:20;38.80;;;16.80;;
69910;SDS011;63555;49.920;17.868;2023-05-19T23:32:20;45.53;;;18.73;;
69910;SDS011;63555;49.920;17.868;2023-05-19T23:37:21;44.07;;;18.03;;
69910;SDS011;63555;49.920;17.868;2023-05-19T23:42:21;43.87;;;19.50;;
69910;SDS011;63555;49.920;17.868;2023-05-19T23:47:21;45.13;;;18.53;;
69910;SDS011;63555;49.920;17.868;2023-05-19T23:52:22;42.37;;;18.10;;
69910;SDS011;63555;49.920;17.868;2023-05-19T23:57:22;42.97;;;18.50;;
